Time,TemperatureF,DewpointF,PressureIn,WindDirection,WindDirectionDegrees,WindSpeedMPH,WindSpeedGustMPH,Humidity,HourlyPrecipIn,Conditions,Clouds,dailyrainin,SoftwareType,DateUTC
2013-03-21 00:00:00,61.0,59.5,29.88,WNW,292,0.0,0.0,95,0.00,,---,0.00,VWS V14.00,2013-03-21 04:00:00,
2013-03-21 00:01:00,61.0,59.5,29.88,WNW,292,0.0,0.0,95,0.00,,---,0.00,VWS V14.00,2013-03-21 04:01:00,
2013-03-21 00:03:00,61.0,59.5,29.88,NW,315,0.0,0.0,95,0.00,,---,0.00,VWS V14.00,2013-03-21 04:03:00,
2013-03-21 00:07:00,60.8,59.4,29.88,NNW,338,2.0,2.9,95,0.00,,---,0.00,VWS V14.00,2013-03-21 04:07:00,
2013-03-21 00:12:00,60.8,59.4,29.88,WNW,292,0.0,2.2,95,0.00,,---,0.00,VWS V14.00,2013-03-21 04:12:00,
2013-03-21 00:18:00,60.8,59.4,29.88,NW,315,0.0,0.0,95,0.00,,---,0.00,VWS V14.00,2013-03-21 04:18:00,
2013-03-21 00:23:00,60.8,59.4,29.88,WNW,292,0.0,0.0,95,0.00,,---,0.00,VWS V14.00,2013-03-21 04:23:00,
2013-03-21 00:29:00,60.8,59.4,29.88,NW,315,2.0,2.0,95,0.00,,---,0.00,VWS V14.00,2013-03-21 04:29:00,
2013-03-21 00:34:00,60.8,59.4,29.85,WNW,292,2.5,2.5,95,0.00,,---,0.00,VWS V14.00,2013-03-21 04:34:00,
2013-03-21 00:39:00,60.8,59.4,29.85,NNW,338,2.0,2.9,95,0.00,,---,0.00,VWS V14.00,2013-03-21 04:39:00,
2013-03-21 00:44:00,60.8,59.4,29.85,NW,315,2.9,2.9,95,0.00,,---,0.00,VWS V14.00,2013-03-21 04:44:00,
2013-03-21 00:50:00,61.0,59.5,29.88,NW,315,4.5,4.5,95,0.00,,---,0.00,VWS V14.00,2013-03-21 04:50:00,
2013-03-21 00:55:00,61.2,59.7,29.88,NNW,338,2.2,2.2,95,0.00,,---,0.00,VWS V14.00,2013-03-21 04:55:00,
2013-03-21 01:01:00,61.3,59.9,29.85,NW,315,3.6,3.8,95,0.00,,---,0.00,VWS V14.00,2013-03-21 05:01:00,
2013-03-21 01:06:00,61.3,59.9,29.85,NW,315,4.9,4.9,95,0.00,,---,0.00,VWS V14.00,2013-03-21 05:06:00,
2013-03-21 01:12:00,61.3,59.9,29.85,West,270,3.6,3.6,95,0.00,,---,0.00,VWS V14.00,2013-03-21 05:12:00,
2013-03-21 01:17:00,61.3,59.9,29.85,NNW,338,3.6,4.7,95,0.00,,---,0.00,VWS V14.00,2013-03-21 05:17:00,
2013-03-21 01:23:00,61.3,59.9,29.85,NNW,338,3.4,3.6,95,0.00,,---,0.00,VWS V14.00,2013-03-21 05:23:00,
2013-03-21 01:29:00,61.2,59.7,29.85,NW,315,2.7,2.7,95,0.00,,---,0.00,VWS V14.00,2013-03-21 05:29:00,
2013-03-21 01:35:00,61.2,59.7,29.85,WNW,292,3.8,3.8,95,0.00,,---,0.00,VWS V14.00,2013-03-21 05:35:00,
2013-03-21 01:42:00,61.2,59.7,29.85,North,0,3.1,3.4,95,0.00,,---,0.00,VWS V14.00,2013-03-21 05:42:00,
2013-03-21 01:47:00,61.2,59.7,29.88,NNW,338,5.4,5.4,95,0.00,,---,0.00,VWS V14.00,2013-03-21 05:47:00,
2013-03-21 01:53:00,61.0,59.5,29.88,WNW,292,4.3,5.4,95,0.00,,---,0.00,VWS V14.00,2013-03-21 05:53:00,
2013-03-21 01:58:00,61.0,59.5,29.88,NNW,338,7.2,9.4,95,0.00,,---,0.00,VWS V14.00,2013-03-21 05:58:00,
2013-03-21 02:04:00,61.0,59.2,29.88,WNW,292,4.0,6.0,94,0.00,,---,0.00,VWS V14.00,2013-03-21 06:04:00,
2013-03-21 02:09:00,61.0,59.2,29.88,WNW,292,3.6,3.6,94,0.00,,---,0.00,VWS V14.00,2013-03-21 06:09:00,
2013-03-21 02:15:00,61.0,59.2,29.85,NW,315,3.8,4.9,94,0.00,,---,0.00,VWS V14.00,2013-03-21 06:15:00,
2013-03-21 02:20:00,61.0,59.2,29.85,NW,315,3.4,3.4,94,0.00,,---,0.00,VWS V14.00,2013-03-21 06:20:00,
2013-03-21 02:28:00,61.0,59.2,29.85,WNW,292,2.7,4.3,94,0.00,,---,0.00,VWS V14.00,2013-03-21 06:28:00,
2013-03-21 02:34:00,61.0,59.2,29.88,WNW,292,2.0,5.6,94,0.00,,---,0.00,VWS V14.00,2013-03-21 06:34:00,
2013-03-21 02:39:00,60.8,59.1,29.88,North,0,2.5,2.5,94,0.00,,---,0.00,VWS V14.00,2013-03-21 06:39:00,
2013-03-21 02:45:00,60.8,58.8,29.88,NW,315,4.3,4.3,93,0.00,,---,0.00,VWS V14.00,2013-03-21 06:45:00,
2013-03-21 02:50:00,60.8,58.8,29.88,WNW,292,5.4,5.4,93,0.00,,---,0.00,VWS V14.00,2013-03-21 06:50:00,
2013-03-21 02:55:00,60.8,58.8,29.88,NW,315,5.6,5.6,93,0.00,,---,0.00,VWS V14.00,2013-03-21 06:55:00,
2013-03-21 03:00:00,60.8,58.8,29.88,NW,315,2.5,2.5,93,0.00,,---,0.00,VWS V14.00,2013-03-21 07:00:00,
2013-03-21 03:07:00,60.8,58.5,29.88,NW,315,3.1,3.4,92,0.00,,---,0.00,VWS V14.00,2013-03-21 07:07:00,
2013-03-21 03:12:00,60.6,58.6,29.88,WNW,292,3.4,3.4,93,0.00,,---,0.00,VWS V14.00,2013-03-21 07:12:00,
2013-03-21 03:18:00,60.6,58.3,29.88,WNW,292,3.1,3.8,92,0.00,,---,0.00,VWS V14.00,2013-03-21 07:18:00,
2013-03-21 03:23:00,60.6,58.0,29.88,NNW,338,2.5,4.0,91,0.00,,---,0.00,VWS V14.00,2013-03-21 07:23:00,
2013-03-21 03:29:00,60.4,57.8,29.88,WNW,292,2.5,2.9,91,0.00,,---,0.00,VWS V14.00,2013-03-21 07:29:00,
2013-03-21 03:35:00,60.4,57.5,29.85,WNW,292,4.3,4.3,90,0.00,,---,0.00,VWS V14.00,2013-03-21 07:35:00,
2013-03-21 03:40:00,60.4,57.5,29.85,NW,315,6.5,6.5,90,0.00,,---,0.00,VWS V14.00,2013-03-21 07:40:00,
2013-03-21 03:45:00,60.3,57.0,29.85,NE,45,3.4,4.0,89,0.00,,---,0.00,VWS V14.00,2013-03-21 07:45:00,
2013-03-21 03:50:00,60.3,56.1,29.85,NW,315,5.4,6.3,86,0.00,,---,0.00,VWS V14.00,2013-03-21 07:50:00,
2013-03-21 03:57:00,60.1,55.9,29.85,NNW,338,3.8,3.8,86,0.00,,---,0.00,VWS V14.00,2013-03-21 07:57:00,
2013-03-21 04:02:00,60.1,55.2,29.85,NNE,22,1.6,3.1,84,0.00,,---,0.00,VWS V14.00,2013-03-21 08:02:00,
2013-03-21 04:08:00,59.9,54.7,29.85,NNW,338,5.6,5.6,83,0.00,,---,0.00,VWS V14.00,2013-03-21 08:08:00,
2013-03-21 04:14:00,59.9,54.7,29.85,NNW,338,3.1,3.1,83,0.00,,---,0.00,VWS V14.00,2013-03-21 08:14:00,
2013-03-21 04:19:00,59.7,53.2,29.85,NW,315,2.2,2.2,79,0.00,,---,0.00,VWS V14.00,2013-03-21 08:19:00,
2013-03-21 04:25:00,59.7,52.5,29.85,NW,315,7.6,7.6,77,0.00,,---,0.00,VWS V14.00,2013-03-21 08:25:00,
2013-03-21 04:32:00,59.7,51.8,29.85,NNW,338,4.3,4.3,75,0.00,,---,0.00,VWS V14.00,2013-03-21 08:32:00,
2013-03-21 04:37:00,59.4,51.5,29.85,North,0,4.3,4.3,75,0.00,,---,0.00,VWS V14.00,2013-03-21 08:37:00,
2013-03-21 04:43:00,59.4,51.1,29.85,NNW,338,8.5,8.5,74,0.00,,---,0.00,VWS V14.00,2013-03-21 08:43:00,
2013-03-21 04:48:00,59.2,51.6,29.85,NNW,338,5.6,5.6,76,0.00,,---,0.00,VWS V14.00,2013-03-21 08:48:00,
2013-03-21 04:54:00,59.4,50.7,29.85,NNW,338,8.7,8.7,73,0.00,,---,0.00,VWS V14.00,2013-03-21 08:54:00,
2013-03-21 05:00:00,59.2,51.3,29.85,NNW,338,3.4,4.3,75,0.00,,---,0.00,VWS V14.00,2013-03-21 09:00:00,
2013-03-21 05:07:00,59.2,50.9,29.85,NNE,22,7.8,7.8,74,0.00,,---,0.00,VWS V14.00,2013-03-21 09:07:00,
2013-03-21 05:13:00,58.8,50.6,29.85,NNE,22,3.6,3.6,74,0.00,,---,0.00,VWS V14.00,2013-03-21 09:13:00,
2013-03-21 05:18:00,58.8,50.2,29.85,NNE,22,3.6,3.6,73,0.00,,---,0.00,VWS V14.00,2013-03-21 09:18:00,
2013-03-21 05:24:00,58.6,50.0,29.85,NNE,22,2.9,5.8,73,0.00,,---,0.00,VWS V14.00,2013-03-21 09:24:00,
2013-03-21 05:30:00,58.3,50.0,29.85,NNW,338,5.4,7.4,74,0.00,,---,0.00,VWS V14.00,2013-03-21 09:30:00,
2013-03-21 05:36:00,58.3,48.2,29.85,North,0,4.9,5.8,69,0.00,,---,0.00,VWS V14.00,2013-03-21 09:36:00,
2013-03-21 05:41:00,58.1,48.8,29.85,NNE,22,4.9,4.9,71,0.00,,---,0.00,VWS V14.00,2013-03-21 09:41:00,
2013-03-21 05:47:00,57.7,48.4,29.85,NNE,22,4.3,4.3,71,0.00,,---,0.00,VWS V14.00,2013-03-21 09:47:00,
2013-03-21 05:52:00,57.6,48.6,29.85,NE,45,5.4,5.4,72,0.00,,---,0.00,VWS V14.00,2013-03-21 09:52:00,
2013-03-21 05:58:00,57.2,48.6,29.85,NNE,22,2.7,2.7,73,0.00,,---,0.00,VWS V14.00,2013-03-21 09:58:00,
2013-03-21 06:03:00,57.0,48.5,29.85,NNE,22,1.3,2.5,73,0.00,,---,0.00,VWS V14.00,2013-03-21 10:03:00,
2013-03-21 06:09:00,56.8,46.4,29.85,NNE,22,5.8,5.8,68,0.00,,---,0.00,VWS V14.00,2013-03-21 10:09:00,
2013-03-21 06:14:00,56.8,47.5,29.85,NE,45,3.6,3.6,71,0.00,,---,0.00,VWS V14.00,2013-03-21 10:14:00,
2013-03-21 06:20:00,56.7,45.4,29.88,NNE,22,2.5,3.4,66,0.00,,---,0.00,VWS V14.00,2013-03-21 10:20:00,
2013-03-21 06:25:00,56.7,46.2,29.88,North,0,2.9,2.9,68,0.00,,---,0.00,VWS V14.00,2013-03-21 10:25:00,
2013-03-21 06:31:00,56.5,43.2,29.88,NNE,22,2.7,3.6,61,0.00,,---,0.00,VWS V14.00,2013-03-21 10:31:00,
2013-03-21 06:37:00,56.3,44.3,29.88,NNE,22,3.1,3.1,64,0.00,,---,0.00,VWS V14.00,2013-03-21 10:37:00,
2013-03-21 06:42:00,56.1,44.5,29.88,NNE,22,4.3,4.3,65,0.00,,---,0.00,VWS V14.00,2013-03-21 10:42:00,
2013-03-21 06:48:00,55.9,44.0,29.88,NE,45,2.0,3.4,64,0.00,,---,0.00,VWS V14.00,2013-03-21 10:48:00,
2013-03-21 06:53:00,55.8,45.4,29.88,NNE,22,4.0,4.7,68,0.00,,---,0.00,VWS V14.00,2013-03-21 10:53:00,
2013-03-21 06:59:00,55.8,44.6,29.88,NNE,22,2.5,2.5,66,0.00,,---,0.00,VWS V14.00,2013-03-21 10:59:00,
2013-03-21 07:04:00,55.6,44.8,29.88,NE,45,3.6,3.6,67,0.00,,---,0.00,VWS V14.00,2013-03-21 11:04:00,
2013-03-21 07:10:00,55.2,45.2,29.88,NNE,22,2.7,5.6,69,0.00,,---,0.00,VWS V14.00,2013-03-21 11:10:00,
2013-03-21 07:15:00,55.0,45.5,29.88,NNE,22,4.7,4.7,70,0.00,,---,0.00,VWS V14.00,2013-03-21 11:15:00,
2013-03-21 07:22:00,54.9,45.3,29.88,NNE,22,5.8,5.8,70,0.00,,---,0.00,VWS V14.00,2013-03-21 11:22:00,
2013-03-21 07:27:00,54.9,45.7,29.88,NE,45,4.7,4.7,71,0.00,,---,0.00,VWS V14.00,2013-03-21 11:27:00,
2013-03-21 07:33:00,54.7,45.1,29.91,NE,45,2.0,3.8,70,0.00,,---,0.00,VWS V14.00,2013-03-21 11:33:00,
2013-03-21 07:38:00,54.7,45.1,29.91,ENE,68,2.7,6.0,70,0.00,,---,0.00,VWS V14.00,2013-03-21 11:38:00,
2013-03-21 07:44:00,54.7,44.7,29.91,NNE,22,2.5,4.0,69,0.00,,---,0.00,VWS V14.00,2013-03-21 11:44:00,
2013-03-21 07:49:00,54.5,45.3,29.91,NNE,22,3.6,3.6,71,0.00,,---,0.00,VWS V14.00,2013-03-21 11:49:00,
2013-03-21 07:55:00,54.5,44.9,29.91,ENE,68,3.6,3.6,70,0.00,,---,0.00,VWS V14.00,2013-03-21 11:55:00,
2013-03-21 08:01:00,54.5,44.5,29.91,NNE,22,3.4,5.4,69,0.00,,---,0.00,VWS V14.00,2013-03-21 12:01:00,
2013-03-21 08:06:00,54.5,44.9,29.91,NNE,22,3.4,3.6,70,0.00,,---,0.00,VWS V14.00,2013-03-21 12:06:00,
2013-03-21 08:11:00,54.5,44.2,29.91,NNE,22,3.6,3.8,68,0.00,,---,0.00,VWS V14.00,2013-03-21 12:11:00,
2013-03-21 08:17:00,54.5,44.2,29.91,NNE,22,6.0,6.0,68,0.00,,---,0.00,VWS V14.00,2013-03-21 12:17:00,
2013-03-21 08:23:00,54.5,43.8,29.91,NE,45,5.6,6.3,67,0.00,,---,0.00,VWS V14.00,2013-03-21 12:23:00,
2013-03-21 08:28:00,54.5,43.8,29.91,NNE,22,5.8,5.8,67,0.00,,---,0.00,VWS V14.00,2013-03-21 12:28:00,
2013-03-21 08:34:00,54.5,42.6,29.91,NE,45,6.3,6.3,64,0.00,,---,0.00,VWS V14.00,2013-03-21 12:34:00,
2013-03-21 08:40:00,54.7,41.9,29.91,NNE,22,4.9,7.8,62,0.00,,---,0.00,VWS V14.00,2013-03-21 12:40:00,
2013-03-21 08:46:00,55.0,41.8,29.91,NNE,22,7.6,7.6,61,0.00,,---,0.00,VWS V14.00,2013-03-21 12:46:00,
2013-03-21 08:51:00,55.4,40.9,29.91,NNE,22,3.6,4.3,58,0.00,,---,0.00,VWS V14.00,2013-03-21 12:51:00,
2013-03-21 08:57:00,55.6,41.5,29.91,NNE,22,4.3,4.3,59,0.00,,---,0.00,VWS V14.00,2013-03-21 12:57:00,
2013-03-21 09:03:00,55.8,41.7,29.91,North,0,4.3,7.8,59,0.00,,---,0.00,VWS V14.00,2013-03-21 13:03:00,
2013-03-21 09:08:00,56.1,41.6,29.91,ENE,68,7.2,7.2,58,0.00,,---,0.00,VWS V14.00,2013-03-21 13:08:00,
2013-03-21 09:14:00,56.3,39.9,29.91,NNE,22,2.5,2.5,54,0.00,,---,0.00,VWS V14.00,2013-03-21 13:14:00,
2013-03-21 09:19:00,56.5,41.5,29.91,NNE,22,8.7,8.7,57,0.00,,---,0.00,VWS V14.00,2013-03-21 13:19:00,
2013-03-21 09:25:00,56.8,38.9,29.91,NNE,22,4.0,4.0,51,0.00,,---,0.00,VWS V14.00,2013-03-21 13:25:00,
2013-03-21 09:31:00,57.2,38.2,29.91,NNE,22,3.4,5.4,49,0.00,,---,0.00,VWS V14.00,2013-03-21 13:31:00,
2013-03-21 09:36:00,57.6,39.1,29.91,NE,45,6.0,6.0,50,0.00,,---,0.00,VWS V14.00,2013-03-21 13:36:00,
2013-03-21 09:42:00,57.4,39.9,29.91,NE,45,6.0,6.0,52,0.00,,---,0.00,VWS V14.00,2013-03-21 13:42:00,
2013-03-21 09:47:00,57.2,39.2,29.91,NNE,22,7.4,7.4,51,0.00,,---,0.00,VWS V14.00,2013-03-21 13:47:00,
2013-03-21 09:52:00,57.7,38.2,29.91,North,0,5.6,7.4,48,0.00,,---,0.00,VWS V14.00,2013-03-21 13:52:00,
2013-03-21 09:58:00,58.3,38.2,29.91,NNE,22,5.8,5.8,47,0.00,,---,0.00,VWS V14.00,2013-03-21 13:58:00,
2013-03-21 10:03:00,58.5,38.3,29.91,North,0,4.3,6.5,47,0.00,,---,0.00,VWS V14.00,2013-03-21 14:03:00,
2013-03-21 10:09:00,58.8,38.7,29.91,NE,45,5.4,5.4,47,0.00,,---,0.00,VWS V14.00,2013-03-21 14:09:00,
2013-03-21 10:14:00,59.4,39.2,29.91,NNW,338,6.5,6.5,47,0.00,,---,0.00,VWS V14.00,2013-03-21 14:14:00,
2013-03-21 10:20:00,60.1,38.1,29.91,NE,45,7.4,7.4,44,0.00,,---,0.00,VWS V14.00,2013-03-21 14:20:00,
2013-03-21 10:26:00,60.1,39.2,29.91,NNE,22,6.3,8.5,46,0.00,,---,0.00,VWS V14.00,2013-03-21 14:26:00,
2013-03-21 10:32:00,60.6,38.0,29.94,NNE,22,5.6,5.6,43,0.00,,---,0.00,VWS V14.00,2013-03-21 14:32:00,
2013-03-21 10:37:00,61.0,37.8,29.94,NNE,22,7.8,7.8,42,0.00,,---,0.00,VWS V14.00,2013-03-21 14:37:00,
2013-03-21 10:43:00,61.3,38.1,29.94,NNW,338,5.8,8.1,42,0.00,,---,0.00,VWS V14.00,2013-03-21 14:43:00,
2013-03-21 10:49:00,61.9,38.6,29.94,NNW,338,5.4,7.6,42,0.00,,---,0.00,VWS V14.00,2013-03-21 14:49:00,
2013-03-21 10:55:00,61.7,37.8,29.94,NNW,338,8.5,8.5,41,0.00,,---,0.00,VWS V14.00,2013-03-21 14:55:00,
2013-03-21 11:00:00,61.5,40.0,29.94,North,0,4.3,4.3,45,0.00,,---,0.00,VWS V14.00,2013-03-21 15:00:00,
2013-03-21 11:07:00,61.7,37.8,29.94,NW,315,5.6,5.6,41,0.00,,---,0.00,VWS V14.00,2013-03-21 15:07:00,
2013-03-21 11:12:00,61.9,37.3,29.94,NE,45,8.5,8.5,40,0.00,,---,0.00,VWS V14.00,2013-03-21 15:12:00,
2013-03-21 11:18:00,62.4,38.4,29.97,NNW,338,5.4,5.4,41,0.00,,---,0.00,VWS V14.00,2013-03-21 15:18:00,
2013-03-21 11:23:00,62.2,37.6,29.97,NNW,338,4.3,4.3,40,0.00,,---,0.00,VWS V14.00,2013-03-21 15:23:00,
2013-03-21 11:29:00,62.6,36.7,29.97,NNW,338,5.6,8.1,38,0.00,,---,0.00,VWS V14.00,2013-03-21 15:29:00,
2013-03-21 11:35:00,63.0,36.3,29.97,NNW,338,6.3,6.3,37,0.00,,---,0.00,VWS V14.00,2013-03-21 15:35:00,
2013-03-21 11:40:00,62.6,35.3,29.97,North,0,6.5,6.5,36,0.00,,---,0.00,VWS V14.00,2013-03-21 15:40:00,
2013-03-21 11:46:00,63.0,35.6,29.97,NNW,338,6.5,8.1,36,0.00,,---,0.00,VWS V14.00,2013-03-21 15:46:00,
2013-03-21 11:51:00,63.0,34.2,29.97,North,0,3.6,7.2,34,0.00,,---,0.00,VWS V14.00,2013-03-21 15:51:00,
2013-03-21 11:57:00,63.0,34.9,29.97,NNW,338,5.4,6.0,35,0.00,,---,0.00,VWS V14.00,2013-03-21 15:57:00,
2013-03-21 12:02:00,63.0,34.2,29.94,North,0,5.8,5.8,34,0.00,,---,0.00,VWS V14.00,2013-03-21 16:02:00,
2013-03-21 12:07:00,63.1,34.3,29.94,NNW,338,7.6,7.6,34,0.00,,---,0.00,VWS V14.00,2013-03-21 16:07:00,
2013-03-21 12:12:00,63.3,35.2,29.94,North,0,7.2,7.8,35,0.00,,---,0.00,VWS V14.00,2013-03-21 16:12:00,
2013-03-21 12:18:00,63.9,35.0,29.94,NNW,338,5.8,9.0,34,0.00,,---,0.00,VWS V14.00,2013-03-21 16:18:00,
2013-03-21 12:23:00,63.7,34.8,29.94,NNW,338,9.2,9.2,34,0.00,,---,0.00,VWS V14.00,2013-03-21 16:23:00,
2013-03-21 12:29:00,63.7,34.8,29.94,NNW,338,6.0,9.8,34,0.00,,---,0.00,VWS V14.00,2013-03-21 16:29:00,
2013-03-21 12:34:00,63.7,34.8,29.94,NNW,338,5.4,6.3,34,0.00,,---,0.00,VWS V14.00,2013-03-21 16:34:00,
2013-03-21 12:40:00,63.9,34.2,29.94,North,0,6.9,7.4,33,0.00,,---,0.00,VWS V14.00,2013-03-21 16:40:00,
2013-03-21 12:45:00,64.0,34.4,29.94,NNE,22,12.1,12.1,33,0.00,,---,0.00,VWS V14.00,2013-03-21 16:45:00,
2013-03-21 12:51:00,64.2,33.0,29.94,NNW,338,4.3,8.7,31,0.00,,---,0.00,VWS V14.00,2013-03-21 16:51:00,
2013-03-21 12:56:00,64.0,32.8,29.94,NNW,338,6.5,6.5,31,0.00,,---,0.00,VWS V14.00,2013-03-21 16:56:00,
2013-03-21 13:02:00,64.4,33.1,29.94,WNW,292,5.4,6.3,31,0.00,,---,0.00,VWS V14.00,2013-03-21 17:02:00,
2013-03-21 13:07:00,64.4,33.9,29.94,NNE,22,2.5,2.5,32,0.00,,---,0.00,VWS V14.00,2013-03-21 17:07:00,
2013-03-21 13:13:00,64.4,32.3,29.94,NNE,22,5.4,8.7,30,0.00,,---,0.00,VWS V14.00,2013-03-21 17:13:00,
2013-03-21 13:19:00,64.8,33.5,29.94,NNW,338,10.3,10.3,31,0.00,,---,0.00,VWS V14.00,2013-03-21 17:19:00,
2013-03-21 13:24:00,64.9,34.4,29.94,North,0,3.8,3.8,32,0.00,,---,0.00,VWS V14.00,2013-03-21 17:24:00,
2013-03-21 13:30:00,65.3,34.7,29.94,WNW,292,5.4,7.8,32,0.00,,---,0.00,VWS V14.00,2013-03-21 17:30:00,
2013-03-21 13:36:00,65.7,35.0,29.94,NW,315,6.3,6.3,32,0.00,,---,0.00,VWS V14.00,2013-03-21 17:36:00,
2013-03-21 13:41:00,65.7,34.2,29.94,NNW,338,2.9,2.9,31,0.00,,---,0.00,VWS V14.00,2013-03-21 17:41:00,
2013-03-21 13:46:00,65.8,36.0,29.91,North,0,5.8,5.8,33,0.00,,---,0.00,VWS V14.00,2013-03-21 17:46:00,
2013-03-21 13:51:00,66.4,34.9,29.91,NNW,338,5.6,7.4,31,0.00,,---,0.00,VWS V14.00,2013-03-21 17:51:00,
2013-03-21 13:56:00,66.6,34.2,29.91,NNW,338,10.7,10.7,30,0.00,,---,0.00,VWS V14.00,2013-03-21 17:56:00,
2013-03-21 14:02:00,66.6,33.3,29.91,NNW,338,6.3,6.3,29,0.00,,---,0.00,VWS V14.00,2013-03-21 18:02:00,
2013-03-21 14:07:00,66.6,35.0,29.91,NNE,22,10.3,10.3,31,0.00,,---,0.00,VWS V14.00,2013-03-21 18:07:00,
2013-03-21 14:13:00,66.9,34.5,29.91,NNW,338,2.9,6.9,30,0.00,,---,0.00,VWS V14.00,2013-03-21 18:13:00,
2013-03-21 14:19:00,66.7,33.5,29.91,NNW,338,4.9,10.5,29,0.00,,---,0.00,VWS V14.00,2013-03-21 18:19:00,
2013-03-21 14:25:00,66.6,33.3,29.91,NNW,338,6.0,6.0,29,0.00,,---,0.00,VWS V14.00,2013-03-21 18:25:00,
2013-03-21 14:30:00,66.4,34.0,29.91,WNW,292,8.1,8.1,30,0.00,,---,0.00,VWS V14.00,2013-03-21 18:30:00,
2013-03-21 14:36:00,66.6,33.3,29.91,NNW,338,8.7,8.7,29,0.00,,---,0.00,VWS V14.00,2013-03-21 18:36:00,
2013-03-21 14:42:00,66.7,34.3,29.91,North,0,9.4,9.4,30,0.00,,---,0.00,VWS V14.00,2013-03-21 18:42:00,
2013-03-21 14:48:00,66.4,33.2,29.91,NNW,338,5.6,11.4,29,0.00,,---,0.00,VWS V14.00,2013-03-21 18:48:00,
2013-03-21 14:53:00,66.7,35.2,29.91,WNW,292,9.4,9.4,31,0.00,,---,0.00,VWS V14.00,2013-03-21 18:53:00,
2013-03-21 14:59:00,66.7,34.3,29.91,North,0,9.4,9.4,30,0.00,,---,0.00,VWS V14.00,2013-03-21 18:59:00,
2013-03-21 15:05:00,66.2,34.7,29.91,WNW,292,8.7,8.7,31,0.00,,---,0.00,VWS V14.00,2013-03-21 19:05:00,
2013-03-21 15:10:00,66.0,35.3,29.91,WNW,292,9.8,9.8,32,0.00,,---,0.00,VWS V14.00,2013-03-21 19:10:00,
2013-03-21 15:15:00,66.0,34.5,29.91,WNW,292,7.6,10.1,31,0.00,,---,0.00,VWS V14.00,2013-03-21 19:15:00,
2013-03-21 15:20:00,66.2,34.7,29.91,WNW,292,7.6,7.6,31,0.00,,---,0.00,VWS V14.00,2013-03-21 19:20:00,
2013-03-21 15:26:00,66.0,35.3,29.91,NNW,338,5.8,5.8,32,0.00,,---,0.00,VWS V14.00,2013-03-21 19:26:00,
2013-03-21 15:31:00,66.2,35.5,29.91,NNE,22,6.9,6.9,32,0.00,,---,0.00,VWS V14.00,2013-03-21 19:31:00,
2013-03-21 15:37:00,66.2,34.7,29.91,WNW,292,4.9,8.1,31,0.00,,---,0.00,VWS V14.00,2013-03-21 19:37:00,
2013-03-21 15:42:00,65.8,35.2,29.91,WNW,292,9.4,9.4,32,0.00,,---,0.00,VWS V14.00,2013-03-21 19:42:00,
2013-03-21 15:48:00,65.7,35.0,29.91,NW,315,10.5,10.5,32,0.00,,---,0.00,VWS V14.00,2013-03-21 19:48:00,
2013-03-21 15:53:00,65.8,36.0,29.91,NNW,338,12.3,12.3,33,0.00,,---,0.00,VWS V14.00,2013-03-21 19:53:00,
2013-03-21 15:59:00,65.8,36.0,29.91,WNW,292,8.7,8.7,33,0.00,,---,0.00,VWS V14.00,2013-03-21 19:59:00,
2013-03-21 16:05:00,65.5,35.6,29.91,NNW,338,10.3,10.3,33,0.00,,---,0.00,VWS V14.00,2013-03-21 20:05:00,
2013-03-21 16:12:00,66.0,36.1,29.88,North,0,2.9,6.9,33,0.00,,---,0.00,VWS V14.00,2013-03-21 20:12:00,
2013-03-21 16:17:00,65.7,35.8,29.88,WNW,292,7.2,7.2,33,0.00,,---,0.00,VWS V14.00,2013-03-21 20:17:00,
2013-03-21 16:23:00,66.2,36.3,29.88,NNW,338,5.6,5.6,33,0.00,,---,0.00,VWS V14.00,2013-03-21 20:23:00,
2013-03-21 16:29:00,66.4,36.4,29.88,NE,45,3.6,8.1,33,0.00,,---,0.00,VWS V14.00,2013-03-21 20:29:00,
2013-03-21 16:35:00,66.7,36.8,29.88,NNW,338,4.3,5.6,33,0.00,,---,0.00,VWS V14.00,2013-03-21 20:35:00,
2013-03-21 16:40:00,66.2,36.3,29.88,NNW,338,7.8,7.8,33,0.00,,---,0.00,VWS V14.00,2013-03-21 20:40:00,
2013-03-21 16:46:00,66.0,36.9,29.88,NW,315,4.0,4.9,34,0.00,,---,0.00,VWS V14.00,2013-03-21 20:46:00,
2013-03-21 16:51:00,65.8,36.7,29.88,WNW,292,4.3,4.3,34,0.00,,---,0.00,VWS V14.00,2013-03-21 20:51:00,
2013-03-21 16:57:00,65.8,36.7,29.88,WNW,292,6.0,6.0,34,0.00,,---,0.00,VWS V14.00,2013-03-21 20:57:00,
2013-03-21 17:02:00,65.8,36.7,29.88,WNW,292,6.3,6.3,34,0.00,,---,0.00,VWS V14.00,2013-03-21 21:02:00,
2013-03-21 17:08:00,65.1,36.1,29.88,NNW,338,9.8,9.8,34,0.00,,---,0.00,VWS V14.00,2013-03-21 21:08:00,
2013-03-21 17:14:00,64.6,35.6,29.88,NW,315,5.6,6.5,34,0.00,,---,0.00,VWS V14.00,2013-03-21 21:14:00,
2013-03-21 17:19:00,64.8,35.8,29.88,WNW,292,3.8,6.0,34,0.00,,---,0.00,VWS V14.00,2013-03-21 21:19:00,
2013-03-21 17:25:00,64.4,35.5,29.88,WNW,292,6.3,6.3,34,0.00,,---,0.00,VWS V14.00,2013-03-21 21:25:00,
2013-03-21 17:30:00,64.2,36.0,29.88,WNW,292,8.5,8.5,35,0.00,,---,0.00,VWS V14.00,2013-03-21 21:30:00,
2013-03-21 17:37:00,64.0,35.9,29.88,WNW,292,4.0,7.6,35,0.00,,---,0.00,VWS V14.00,2013-03-21 21:37:00,
2013-03-21 17:42:00,64.2,36.0,29.88,NW,315,3.4,6.7,35,0.00,,---,0.00,VWS V14.00,2013-03-21 21:42:00,
2013-03-21 17:48:00,64.2,36.0,29.88,ENE,68,5.8,5.8,35,0.00,,---,0.00,VWS V14.00,2013-03-21 21:48:00,
2013-03-21 17:53:00,64.2,36.0,29.88,NNW,338,5.8,8.1,35,0.00,,---,0.00,VWS V14.00,2013-03-21 21:53:00,
2013-03-21 17:59:00,64.0,36.6,29.88,NNW,338,1.1,3.6,36,0.00,,---,0.00,VWS V14.00,2013-03-21 21:59:00,
2013-03-21 18:04:00,63.5,36.1,29.88,NNW,338,6.7,6.7,36,0.00,,---,0.00,VWS V14.00,2013-03-21 22:04:00,
2013-03-21 18:10:00,63.1,35.8,29.88,NNE,22,7.6,7.6,36,0.00,,---,0.00,VWS V14.00,2013-03-21 22:10:00,
2013-03-21 18:15:00,63.5,36.1,29.88,NNW,338,7.2,10.7,36,0.00,,---,0.00,VWS V14.00,2013-03-21 22:15:00,
2013-03-21 18:21:00,63.3,35.9,29.88,NNW,338,4.3,4.5,36,0.00,,---,0.00,VWS V14.00,2013-03-21 22:21:00,
2013-03-21 18:27:00,63.1,35.8,29.88,NW,315,4.0,4.5,36,0.00,,---,0.00,VWS V14.00,2013-03-21 22:27:00,
2013-03-21 18:32:00,63.1,36.5,29.88,WNW,292,2.9,5.8,37,0.00,,---,0.00,VWS V14.00,2013-03-21 22:32:00,
2013-03-21 18:38:00,63.1,35.8,29.88,NNW,338,3.8,5.6,36,0.00,,---,0.00,VWS V14.00,2013-03-21 22:38:00,
2013-03-21 18:44:00,63.1,35.8,29.88,North,0,5.6,5.6,36,0.00,,---,0.00,VWS V14.00,2013-03-21 22:44:00,
2013-03-21 18:50:00,63.1,36.5,29.88,NNW,338,3.6,3.6,37,0.00,,---,0.00,VWS V14.00,2013-03-21 22:50:00,
2013-03-21 18:55:00,63.3,37.3,29.88,NW,315,2.0,2.0,38,0.00,,---,0.00,VWS V14.00,2013-03-21 22:55:00,
2013-03-21 19:02:00,63.0,35.6,29.88,NW,315,3.8,5.6,36,0.00,,---,0.00,VWS V14.00,2013-03-21 23:02:00,
2013-03-21 19:07:00,62.8,36.2,29.88,North,0,4.3,6.3,37,0.00,,---,0.00,VWS V14.00,2013-03-21 23:07:00,
2013-03-21 19:12:00,62.8,36.8,29.88,North,0,3.8,3.8,38,0.00,,---,0.00,VWS V14.00,2013-03-21 23:12:00,
2013-03-21 19:17:00,62.6,36.7,29.88,NW,315,1.6,3.1,38,0.00,,---,0.00,VWS V14.00,2013-03-21 23:17:00,
2013-03-21 19:23:00,62.1,36.8,29.88,NNW,338,3.8,3.8,39,0.00,,---,0.00,VWS V14.00,2013-03-21 23:23:00,
2013-03-21 19:28:00,61.3,36.8,29.88,WNW,292,0.9,4.0,40,0.00,,---,0.00,VWS V14.00,2013-03-21 23:28:00,
2013-03-21 19:34:00,61.3,36.2,29.88,NW,315,3.1,3.1,39,0.00,,---,0.00,VWS V14.00,2013-03-21 23:34:00,
2013-03-21 19:39:00,61.0,36.5,29.88,NW,315,4.3,4.3,40,0.00,,---,0.00,VWS V14.00,2013-03-21 23:39:00,
2013-03-21 19:45:00,60.8,37.0,29.88,WNW,292,0.9,0.9,41,0.00,,---,0.00,VWS V14.00,2013-03-21 23:45:00,
2013-03-21 19:50:00,60.6,38.0,29.91,NNW,338,0.0,0.0,43,0.00,,---,0.00,VWS V14.00,2013-03-21 23:50:00,
2013-03-21 19:56:00,60.4,37.9,29.91,NNW,338,1.1,1.1,43,0.00,,---,0.00,VWS V14.00,2013-03-21 23:56:00,
2013-03-21 20:02:00,60.4,37.9,29.91,NW,315,0.9,0.9,43,0.00,,---,0.00,VWS V14.00,2013-03-22 00:02:00,
2013-03-21 20:07:00,60.3,38.3,29.91,WNW,292,1.6,1.6,44,0.00,,---,0.00,VWS V14.00,2013-03-22 00:07:00,
2013-03-21 20:13:00,60.1,38.1,29.91,NNW,338,0.0,0.0,44,0.00,,---,0.00,VWS V14.00,2013-03-22 00:13:00,
2013-03-21 20:18:00,59.5,37.6,29.91,NNW,338,1.3,2.5,44,0.00,,---,0.00,VWS V14.00,2013-03-22 00:18:00,
2013-03-21 20:24:00,59.4,37.5,29.91,NNW,338,2.7,2.7,44,0.00,,---,0.00,VWS V14.00,2013-03-22 00:24:00,
2013-03-21 20:30:00,59.2,37.9,29.91,NW,315,1.6,2.0,45,0.00,,---,0.00,VWS V14.00,2013-03-22 00:30:00,
2013-03-21 20:35:00,59.2,37.9,29.91,NW,315,1.1,1.6,45,0.00,,---,0.00,VWS V14.00,2013-03-22 00:35:00,
2013-03-21 20:40:00,59.0,37.7,29.91,NNW,338,0.9,0.9,45,0.00,,---,0.00,VWS V14.00,2013-03-22 00:40:00,
2013-03-21 20:46:00,58.8,38.1,29.91,NNW,338,2.2,2.2,46,0.00,,---,0.00,VWS V14.00,2013-03-22 00:46:00,
2013-03-21 20:52:00,58.8,38.1,29.91,NNW,338,2.2,2.2,46,0.00,,---,0.00,VWS V14.00,2013-03-22 00:52:00,
2013-03-21 20:58:00,58.6,38.5,29.91,WNW,292,0.0,2.9,47,0.00,,---,0.00,VWS V14.00,2013-03-22 00:58:00,
2013-03-21 21:03:00,58.6,37.9,29.91,WNW,292,0.0,0.0,46,0.00,,---,0.00,VWS V14.00,2013-03-22 01:03:00,
2013-03-21 21:09:00,58.5,37.8,29.91,WNW,292,0.0,0.0,46,0.00,,---,0.00,VWS V14.00,2013-03-22 01:09:00,
2013-03-21 21:14:00,58.5,37.8,29.91,WNW,292,0.0,0.0,46,0.00,,---,0.00,VWS V14.00,2013-03-22 01:14:00,
2013-03-21 21:20:00,58.5,37.8,29.91,NW,315,0.0,0.0,46,0.00,,---,0.00,VWS V14.00,2013-03-22 01:20:00,
2013-03-21 21:25:00,58.1,37.5,29.91,NW,315,0.0,0.0,46,0.00,,---,0.00,VWS V14.00,2013-03-22 01:25:00,
2013-03-21 21:32:00,57.9,37.3,29.91,NW,315,0.0,0.0,46,0.00,,---,0.00,VWS V14.00,2013-03-22 01:32:00,
2013-03-21 21:37:00,57.7,37.1,29.91,NNW,338,0.0,0.0,46,0.00,,---,0.00,VWS V14.00,2013-03-22 01:37:00,
2013-03-21 21:43:00,57.6,37.0,29.91,NNW,338,0.0,0.0,46,0.00,,---,0.00,VWS V14.00,2013-03-22 01:43:00,
2013-03-21 21:48:00,57.4,37.3,29.91,NNW,338,0.0,0.0,47,0.00,,---,0.00,VWS V14.00,2013-03-22 01:48:00,
2013-03-21 21:54:00,57.2,37.2,29.91,NNW,338,0.0,0.0,47,0.00,,---,0.00,VWS V14.00,2013-03-22 01:54:00,
2013-03-21 22:00:00,57.0,37.0,29.91,NNW,338,0.0,0.0,47,0.00,,---,0.00,VWS V14.00,2013-03-22 02:00:00,
2013-03-21 22:05:00,56.8,36.8,29.91,NNW,338,0.0,0.0,47,0.00,,---,0.00,VWS V14.00,2013-03-22 02:05:00,
2013-03-21 22:11:00,56.7,37.2,29.91,NNW,338,0.0,0.0,48,0.00,,---,0.00,VWS V14.00,2013-03-22 02:11:00,
2013-03-21 22:17:00,56.5,37.0,29.91,North,0,0.0,0.0,48,0.00,,---,0.00,VWS V14.00,2013-03-22 02:17:00,
2013-03-21 22:23:00,56.3,36.9,29.91,North,0,0.0,0.0,48,0.00,,---,0.00,VWS V14.00,2013-03-22 02:23:00,
2013-03-21 22:28:00,56.1,36.7,29.91,North,0,0.0,0.0,48,0.00,,---,0.00,VWS V14.00,2013-03-22 02:28:00,
2013-03-21 22:34:00,55.9,37.1,29.91,North,0,0.0,0.0,49,0.00,,---,0.00,VWS V14.00,2013-03-22 02:34:00,
2013-03-21 22:39:00,55.9,36.5,29.91,NW,315,0.0,0.0,48,0.00,,---,0.00,VWS V14.00,2013-03-22 02:39:00,
2013-03-21 22:45:00,55.8,36.9,29.91,NW,315,0.0,0.0,49,0.00,,---,0.00,VWS V14.00,2013-03-22 02:45:00,
2013-03-21 22:50:00,55.6,36.7,29.91,North,0,0.0,0.0,49,0.00,,---,0.00,VWS V14.00,2013-03-22 02:50:00,
2013-03-21 22:56:00,55.4,36.6,29.91,North,0,0.0,0.0,49,0.00,,---,0.00,VWS V14.00,2013-03-22 02:56:00,
2013-03-21 23:02:00,55.2,36.4,29.91,North,0,0.0,0.0,49,0.00,,---,0.00,VWS V14.00,2013-03-22 03:02:00,
2013-03-21 23:08:00,55.0,36.8,29.91,North,0,0.0,0.0,50,0.00,,---,0.00,VWS V14.00,2013-03-22 03:08:00,
2013-03-21 23:13:00,55.0,37.3,29.91,North,0,0.0,0.0,51,0.00,,---,0.00,VWS V14.00,2013-03-22 03:13:00,
2013-03-21 23:18:00,54.9,36.6,29.91,North,0,0.0,0.0,50,0.00,,---,0.00,VWS V14.00,2013-03-22 03:18:00,
2013-03-21 23:24:00,54.7,36.4,29.91,NNE,22,0.0,0.0,50,0.00,,---,0.00,VWS V14.00,2013-03-22 03:24:00,
2013-03-21 23:29:00,54.5,36.3,29.91,NE,45,0.0,0.0,50,0.00,,---,0.00,VWS V14.00,2013-03-22 03:29:00,
2013-03-21 23:35:00,54.5,36.3,29.91,ENE,68,0.0,0.0,50,0.00,,---,0.00,VWS V14.00,2013-03-22 03:35:00,
2013-03-21 23:40:00,54.3,36.6,29.91,ENE,68,0.0,0.0,51,0.00,,---,0.00,VWS V14.00,2013-03-22 03:40:00,
2013-03-21 23:46:00,54.3,36.6,29.91,ENE,68,0.0,0.0,51,0.00,,---,0.00,VWS V14.00,2013-03-22 03:46:00,
2013-03-21 23:51:00,54.3,37.1,29.91,ENE,68,0.0,0.0,52,0.00,,---,0.00,VWS V14.00,2013-03-22 03:51:00,
2013-03-21 23:57:00,54.1,38.8,29.91,NNE,22,0.0,0.0,56,0.00,,---,0.00,VWS V14.00,2013-03-22 03:57:00,